Time;durP1;ratioP1;P1;durP2;ratioP2;P2;SDS_P1;SDS_P2;PMS_P1;PMS_P2;Temp;Humidity;BMP_temperature;BMP_pressure;BME280_temperature;BME280_humidity;BME280_pressure;Samples;Min_cycle;Max_cycle;Signal;HPM_P1;HPM_P2
2023/12/09 00:01:57;;;;;;;8.17;3.50;;;7.40;99.90;;;;;;4903658;29;20209;-75
2023/12/09 00:04:22;;;;;;;5.27;3.00;;;7.40;99.90;;;;;;4896468;29;20226;-77
2023/12/09 00:06:49;;;;;;;8.57;3.40;;;7.40;99.90;;;;;;4882009;29;20210;-73
2023/12/09 00:09:16;;;;;;;8.90;3.07;;;7.40;99.90;;;;;;4893480;29;20515;-74
2023/12/09 00:11:42;;;;;;;5.43;2.63;;;7.40;99.90;;;;;;4878379;29;20434;-74
2023/12/09 00:14:07;;;;;;;5.00;3.07;;;7.40;99.90;;;;;;4900971;29;20428;-75
2023/12/09 00:16:34;;;;;;;4.77;2.80;;;7.40;99.90;;;;;;4896382;29;20443;-73
2023/12/09 00:19:00;;;;;;;9.50;3.60;;;7.40;99.90;;;;;;4902121;29;20203;-76
2023/12/09 00:21:26;;;;;;;6.70;3.60;;;7.40;99.90;;;;;;4901594;29;20721;-73
2023/12/09 00:23:52;;;;;;;5.57;3.23;;;7.50;99.90;;;;;;4885478;29;20200;-75
2023/12/09 00:26:17;;;;;;;9.87;3.37;;;7.50;99.90;;;;;;4900483;29;20510;-75
2023/12/09 00:28:43;;;;;;;5.73;3.80;;;7.50;99.90;;;;;;4902190;29;20207;-73
2023/12/09 00:31:09;;;;;;;6.67;3.80;;;7.60;99.90;;;;;;4883920;29;20215;-74
2023/12/09 00:33:35;;;;;;;4.97;2.83;;;7.60;99.90;;;;;;4887879;29;20962;-73
2023/12/09 00:36:01;;;;;;;6.07;3.10;;;7.60;99.90;;;;;;4896348;29;20259;-73
2023/12/09 00:38:27;;;;;;;6.23;2.90;;;7.60;99.90;;;;;;4901475;29;20423;-74
2023/12/09 00:40:52;;;;;;;3.97;2.33;;;7.60;99.90;;;;;;4887050;29;20457;-74
2023/12/09 00:43:18;;;;;;;5.10;3.40;;;7.60;99.90;;;;;;4901472;29;20183;-75
2023/12/09 00:45:44;;;;;;;9.30;3.90;;;7.60;99.90;;;;;;4904345;29;20720;-75
2023/12/09 00:48:09;;;;;;;5.30;3.73;;;7.60;99.90;;;;;;4904015;29;20648;-73
2023/12/09 00:50:35;;;;;;;3.70;2.70;;;7.60;99.90;;;;;;4907074;29;20247;-72
2023/12/09 00:53:01;;;;;;;6.07;3.70;;;7.50;99.90;;;;;;4890096;29;20179;-74
2023/12/09 00:55:26;;;;;;;8.70;3.63;;;7.50;99.90;;;;;;4890168;29;20263;-76
2023/12/09 00:57:52;;;;;;;8.93;4.10;;;7.40;99.90;;;;;;4887660;29;20207;-73
2023/12/09 01:00:18;;;;;;;6.93;3.17;;;7.50;99.90;;;;;;4903672;29;20180;-75
2023/12/09 01:02:44;;;;;;;10.23;4.00;;;7.50;99.90;;;;;;4882470;29;20200;-78
2023/12/09 01:05:10;;;;;;;8.13;3.37;;;7.50;99.90;;;;;;4902048;29;20454;-77
2023/12/09 01:07:36;;;;;;;12.67;3.10;;;7.40;99.90;;;;;;4880667;29;20218;-78
2023/12/09 01:10:03;;;;;;;12.10;2.90;;;7.30;99.90;;;;;;4900641;29;20444;-74
2023/12/09 01:12:30;;;;;;;9.17;3.10;;;7.20;99.90;;;;;;4889202;29;20191;-74
2023/12/09 01:14:56;;;;;;;7.77;3.07;;;7.20;99.90;;;;;;4893797;29;20522;-74
2023/12/09 01:17:21;;;;;;;4.87;2.43;;;7.10;99.90;;;;;;4882387;29;20429;-75
2023/12/09 01:19:47;;;;;;;5.07;3.17;;;7.00;99.90;;;;;;4880526;29;20438;-73
2023/12/09 01:22:13;;;;;;;4.57;2.53;;;6.80;99.90;;;;;;4892405;29;20590;-74
2023/12/09 01:24:39;;;;;;;3.50;2.60;;;6.80;99.90;;;;;;4907579;29;20192;-73
2023/12/09 01:27:05;;;;;;;4.80;2.50;;;6.70;99.90;;;;;;4896830;29;20192;-73
2023/12/09 01:29:31;;;;;;;6.90;2.77;;;6.80;99.90;;;;;;4900333;29;20207;-73
2023/12/09 01:31:56;;;;;;;9.23;2.97;;;6.80;99.90;;;;;;4881091;29;20515;-73
2023/12/09 01:34:22;;;;;;;5.97;3.13;;;6.80;99.90;;;;;;4880737;29;20311;-73
2023/12/09 01:36:49;;;;;;;5.10;3.10;;;6.80;99.90;;;;;;4888402;29;20211;-75
2023/12/09 01:39:15;;;;;;;6.83;2.73;;;6.90;99.90;;;;;;4903245;29;20263;-73
2023/12/09 01:41:40;;;;;;;6.30;2.77;;;7.00;99.90;;;;;;4901440;29;20802;-73
2023/12/09 01:44:06;;;;;;;7.30;3.00;;;7.00;99.90;;;;;;4899312;29;20470;-73
2023/12/09 01:46:33;;;;;;;4.00;2.97;;;7.10;99.90;;;;;;4882707;29;20242;-73
2023/12/09 01:48:58;;;;;;;6.70;3.07;;;7.20;99.90;;;;;;4894394;29;20215;-74
2023/12/09 01:51:25;;;;;;;6.30;3.20;;;7.20;99.90;;;;;;4900097;29;20419;-72
2023/12/09 01:53:52;;;;;;;4.27;1.90;;;7.20;99.90;;;;;;4888486;29;20191;-73
2023/12/09 01:56:20;;;;;;;6.90;2.67;;;7.20;99.90;;;;;;4882020;29;20530;-74
2023/12/09 01:58:45;;;;;;;4.20;2.40;;;7.20;99.90;;;;;;4883959;29;20880;-73
2023/12/09 02:01:12;;;;;;;7.17;2.60;;;7.20;99.90;;;;;;4896742;29;20440;-74
2023/12/09 02:03:39;;;;;;;2.20;1.60;;;7.20;99.90;;;;;;4898265;29;20195;-73
2023/12/09 02:06:05;;;;;;;7.43;2.87;;;7.20;99.90;;;;;;4905006;29;20454;-72
2023/12/09 02:08:31;;;;;;;6.00;2.23;;;7.20;99.90;;;;;;4894179;29;20440;-74
2023/12/09 02:11:17;;;;;;;4.90;2.43;;;7.20;99.90;;;;;;4878279;29;20475;-73
2023/12/09 02:13:57;;;;;;;6.10;3.10;;;7.20;99.90;;;;;;4891959;29;20484;-72
2023/12/09 02:16:42;;;;;;;4.30;2.40;;;7.20;99.90;;;;;;4878610;29;20453;-73
2023/12/09 02:19:12;;;;;;;5.50;2.20;;;7.10;99.90;;;;;;4881040;29;20496;-72
2023/12/09 02:21:58;;;;;;;7.77;2.60;;;7.00;99.90;;;;;;4881258;29;20888;-73
2023/12/09 02:24:23;;;;;;;5.83;2.50;;;6.90;99.90;;;;;;4884910;29;20644;-73
2023/12/09 02:26:51;;;;;;;5.87;2.73;;;6.70;99.90;;;;;;4892411;29;20455;-74
2023/12/09 02:29:17;;;;;;;6.13;2.83;;;6.70;99.90;;;;;;4899755;29;20214;-72
2023/12/09 02:31:45;;;;;;;5.83;2.33;;;6.60;99.90;;;;;;4897781;29;20490;-74
2023/12/09 02:34:12;;;;;;;7.70;2.57;;;6.50;99.90;;;;;;4899796;29;20416;-73
2023/12/09 02:36:42;;;;;;;10.97;2.90;;;6.50;99.90;;;;;;4899654;29;20455;-72
2023/12/09 02:39:10;;;;;;;6.33;2.80;;;6.40;99.90;;;;;;4876297;29;20427;-73
2023/12/09 02:41:36;;;;;;;6.80;2.63;;;6.30;99.90;;;;;;4891818;29;20492;-72
2023/12/09 02:44:03;;;;;;;4.20;2.70;;;6.20;99.90;;;;;;4880125;29;20466;-72
2023/12/09 02:46:28;;;;;;;5.43;2.23;;;6.10;99.90;;;;;;4879797;29;20464;-72
2023/12/09 02:48:54;;;;;;;3.90;2.47;;;6.00;99.90;;;;;;4901018;29;20551;-75
2023/12/09 02:51:20;;;;;;;5.23;2.70;;;5.90;99.90;;;;;;4899501;29;20194;-72
2023/12/09 02:53:45;;;;;;;6.40;3.20;;;5.80;99.90;;;;;;4896068;29;20210;-72
2023/12/09 02:56:11;;;;;;;6.00;2.60;;;5.80;99.90;;;;;;4899908;29;20479;-73
2023/12/09 02:58:37;;;;;;;8.00;3.10;;;5.70;99.90;;;;;;4899652;29;20203;-71
2023/12/09 03:01:03;;;;;;;14.10;3.67;;;5.60;99.90;;;;;;4893098;29;20231;-72
2023/12/09 03:03:29;;;;;;;3.70;2.53;;;5.60;99.90;;;;;;4892412;29;20484;-73
2023/12/09 03:05:56;;;;;;;5.77;3.30;;;5.50;99.90;;;;;;4899871;29;20530;-72
2023/12/09 03:08:22;;;;;;;4.77;2.30;;;5.50;99.90;;;;;;4898948;29;20501;-72
2023/12/09 03:10:47;;;;;;;9.73;2.47;;;5.40;99.90;;;;;;4895271;29;20587;-73
2023/12/09 03:13:13;;;;;;;6.40;2.87;;;5.40;99.90;;;;;;4895654;29;20255;-72
2023/12/09 03:15:38;;;;;;;8.17;3.23;;;5.40;99.90;;;;;;4893025;29;20541;-72
2023/12/09 03:18:04;;;;;;;4.80;2.53;;;5.40;99.90;;;;;;4894376;29;20199;-71
2023/12/09 03:20:30;;;;;;;6.73;2.97;;;5.30;99.90;;;;;;4890579;29;20202;-72
2023/12/09 03:22:55;;;;;;;7.73;2.27;;;5.30;99.90;;;;;;4889189;29;20207;-71
2023/12/09 03:25:21;;;;;;;6.50;2.33;;;5.40;99.90;;;;;;4893986;29;20243;-71
2023/12/09 03:27:47;;;;;;;3.80;2.27;;;5.30;99.90;;;;;;4894933;29;20629;-73
2023/12/09 03:30:12;;;;;;;6.77;2.40;;;5.30;99.90;;;;;;4899748;29;20194;-72
2023/12/09 03:32:39;;;;;;;8.13;2.77;;;5.30;99.90;;;;;;4889072;29;20227;-72
2023/12/09 03:35:05;;;;;;;8.17;2.67;;;5.20;99.90;;;;;;4888965;29;20215;-71
2023/12/09 03:37:30;;;;;;;8.20;2.97;;;5.20;99.90;;;;;;4893634;29;20420;-73
2023/12/09 03:39:56;;;;;;;10.60;2.67;;;5.20;99.90;;;;;;4891070;29;20504;-73
2023/12/09 03:42:22;;;;;;;7.63;2.80;;;5.20;99.90;;;;;;4889174;29;20200;-72
2023/12/09 03:44:48;;;;;;;6.93;3.00;;;5.20;99.90;;;;;;4890331;29;20458;-73
2023/12/09 03:47:13;;;;;;;12.10;3.53;;;5.20;99.90;;;;;;4897161;29;20391;-74
2023/12/09 03:49:39;;;;;;;3.67;2.40;;;5.20;99.90;;;;;;4888975;29;20239;-70
2023/12/09 03:52:05;;;;;;;6.93;3.37;;;5.20;99.90;;;;;;4896438;29;20172;-73
2023/12/09 03:54:30;;;;;;;6.17;2.60;;;5.20;99.90;;;;;;4889000;29;20191;-72
2023/12/09 03:56:56;;;;;;;6.63;3.43;;;5.10;99.90;;;;;;4900159;29;20439;-72
2023/12/09 03:59:21;;;;;;;6.53;2.80;;;5.10;99.90;;;;;;4880914;29;20198;-72
2023/12/09 04:01:49;;;;;;;8.23;3.80;;;5.00;99.90;;;;;;4888761;29;20195;-72
2023/12/09 04:04:15;;;;;;;8.90;3.67;;;5.00;99.90;;;;;;4896819;29;20199;-72
2023/12/09 04:06:42;;;;;;;4.17;2.73;;;5.00;99.90;;;;;;4892795;29;20566;-73
2023/12/09 04:09:11;;;;;;;5.87;3.30;;;4.90;99.90;;;;;;4893239;29;20472;-72
2023/12/09 04:11:37;;;;;;;7.40;4.50;;;4.90;99.90;;;;;;4891143;29;20421;-72
2023/12/09 04:14:03;;;;;;;9.37;3.40;;;4.80;99.90;;;;;;4895553;29;20487;-72
2023/12/09 04:16:29;;;;;;;9.20;3.90;;;4.80;99.90;;;;;;4890458;29;20451;-72
2023/12/09 04:18:55;;;;;;;6.93;4.83;;;4.80;99.90;;;;;;4891822;29;20968;-71
2023/12/09 04:21:21;;;;;;;6.63;2.90;;;4.80;99.90;;;;;;4886331;29;20188;-72
2023/12/09 04:23:47;;;;;;;6.10;3.33;;;4.80;99.90;;;;;;4888855;29;20436;-72
2023/12/09 04:26:13;;;;;;;9.40;3.70;;;4.80;99.90;;;;;;4887935;29;20293;-71
2023/12/09 04:28:39;;;;;;;8.60;4.10;;;4.70;99.90;;;;;;4893073;29;20211;-72
2023/12/09 04:31:05;;;;;;;8.70;4.00;;;4.70;99.90;;;;;;4887496;29;20204;-74
2023/12/09 04:33:30;;;;;;;10.33;4.40;;;4.70;99.90;;;;;;4887187;29;20464;-72
2023/12/09 04:35:56;;;;;;;5.70;4.20;;;4.60;99.90;;;;;;4896296;29;20638;-72
2023/12/09 04:38:22;;;;;;;5.50;4.10;;;4.60;99.90;;;;;;4891230;29;20196;-71
2023/12/09 04:40:47;;;;;;;12.20;4.97;;;4.60;99.90;;;;;;4890049;29;20188;-73
2023/12/09 04:43:13;;;;;;;9.00;4.93;;;4.70;99.90;;;;;;4894490;29;20202;-72
2023/12/09 04:45:38;;;;;;;8.70;5.00;;;4.70;99.90;;;;;;4898591;29;20217;-73
2023/12/09 04:48:05;;;;;;;9.70;5.60;;;4.70;99.90;;;;;;4891513;29;20496;-72
2023/12/09 04:50:31;;;;;;;8.87;4.00;;;4.70;99.90;;;;;;4896375;29;21063;-72
2023/12/09 04:52:56;;;;;;;8.00;4.50;;;4.70;99.90;;;;;;4878752;29;20451;-72
2023/12/09 04:55:22;;;;;;;6.97;4.37;;;4.70;99.90;;;;;;4894298;29;20303;-73
2023/12/09 04:57:48;;;;;;;8.80;5.27;;;4.70;99.90;;;;;;4891895;29;20195;-71
2023/12/09 05:00:14;;;;;;;6.37;4.47;;;4.60;99.90;;;;;;4879833;29;20512;-72
2023/12/09 05:02:39;;;;;;;8.73;4.77;;;4.60;99.90;;;;;;4892717;29;20191;-72
2023/12/09 05:05:05;;;;;;;7.83;4.33;;;4.60;99.90;;;;;;4899333;29;20443;-75
2023/12/09 05:07:31;;;;;;;6.70;4.23;;;4.60;99.90;;;;;;4893099;29;20487;-72
2023/12/09 05:09:57;;;;;;;9.43;4.80;;;4.60;99.90;;;;;;4898741;29;20603;-73
2023/12/09 05:12:22;;;;;;;14.00;5.20;;;4.60;99.90;;;;;;4898502;29;20184;-71
2023/12/09 05:14:48;;;;;;;6.83;4.40;;;4.70;99.90;;;;;;4890422;29;20223;-73
2023/12/09 05:17:15;;;;;;;9.60;5.30;;;4.70;99.90;;;;;;4881855;29;20192;-72
2023/12/09 05:19:40;;;;;;;6.90;5.07;;;4.70;99.90;;;;;;4897208;29;20210;-72
2023/12/09 05:22:06;;;;;;;9.03;4.50;;;4.70;99.90;;;;;;4895434;29;20416;-72
2023/12/09 05:24:32;;;;;;;10.20;4.30;;;4.70;99.90;;;;;;4895629;29;20184;-72
2023/12/09 05:26:57;;;;;;;9.10;4.80;;;4.70;99.90;;;;;;4897787;29;20423;-72
2023/12/09 05:29:24;;;;;;;6.77;4.23;;;4.60;99.90;;;;;;4889110;29;20223;-72
2023/12/09 05:31:49;;;;;;;10.60;5.10;;;4.60;99.90;;;;;;4899080;29;20313;-73
2023/12/09 05:34:15;;;;;;;5.10;4.50;;;4.60;99.90;;;;;;4894931;29;20736;-73
2023/12/09 05:36:41;;;;;;;7.90;4.90;;;4.60;99.90;;;;;;4897487;29;20271;-73
2023/12/09 05:39:06;;;;;;;9.50;4.77;;;4.60;99.90;;;;;;4893650;29;20407;-72
2023/12/09 05:41:32;;;;;;;7.53;4.80;;;4.50;99.90;;;;;;4893589;29;20180;-72
2023/12/09 05:43:58;;;;;;;9.00;4.83;;;4.60;99.90;;;;;;4880490;29;20199;-73
2023/12/09 05:46:23;;;;;;;13.40;5.30;;;4.60;99.90;;;;;;4883066;29;20258;-72
2023/12/09 05:48:49;;;;;;;7.47;4.43;;;4.50;99.90;;;;;;4897784;29;20453;-74
2023/12/09 05:51:15;;;;;;;10.70;4.93;;;4.50;99.90;;;;;;4894138;29;20279;-73
2023/12/09 05:53:41;;;;;;;10.50;4.70;;;4.50;99.90;;;;;;4892406;29;20192;-72
2023/12/09 05:56:13;;;;;;;6.50;4.10;;;4.40;99.90;;;;;;4904826;29;20661;-72
2023/12/09 05:58:40;;;;;;;6.87;3.73;;;4.40;99.90;;;;;;4892677;29;20435;-73
2023/12/09 06:01:07;;;;;;;6.50;4.13;;;4.40;99.90;;;;;;4898633;29;20471;-72
2023/12/09 06:03:33;;;;;;;5.87;4.53;;;4.40;99.90;;;;;;4899697;29;20432;-72
2023/12/09 06:05:58;;;;;;;14.13;4.50;;;4.30;99.90;;;;;;4883314;29;20538;-71
2023/12/09 06:08:24;;;;;;;6.83;4.30;;;4.40;99.90;;;;;;4898660;29;20231;-73
2023/12/09 06:10:51;;;;;;;9.83;5.20;;;4.40;99.90;;;;;;4891137;29;20637;-71
2023/12/09 06:13:17;;;;;;;13.50;5.33;;;4.40;99.90;;;;;;4897221;29;20187;-72
2023/12/09 06:15:42;;;;;;;12.43;5.20;;;4.40;99.90;;;;;;4891808;29;20797;-71
2023/12/09 06:18:08;;;;;;;6.77;4.63;;;4.50;99.90;;;;;;4890083;29;20283;-72
2023/12/09 06:20:34;;;;;;;12.30;4.57;;;4.50;99.90;;;;;;4902295;29;20187;-74
2023/12/09 06:23:00;;;;;;;7.27;4.00;;;4.60;99.90;;;;;;4900217;29;20251;-74
2023/12/09 06:25:26;;;;;;;9.20;4.57;;;4.50;99.90;;;;;;4893575;29;20713;-72
2023/12/09 06:27:51;;;;;;;6.87;4.23;;;4.50;99.90;;;;;;4893099;29;20489;-72
2023/12/09 06:30:17;;;;;;;5.43;3.50;;;4.50;99.90;;;;;;4888266;29;20599;-74
2023/12/09 06:32:43;;;;;;;9.37;4.40;;;4.50;99.90;;;;;;4871104;29;20258;-72
2023/12/09 06:35:09;;;;;;;8.40;4.77;;;4.40;99.90;;;;;;4897153;29;20215;-73
2023/12/09 06:37:35;;;;;;;7.60;3.70;;;4.40;99.90;;;;;;4891138;29;20713;-72
2023/12/09 06:40:00;;;;;;;5.63;3.80;;;4.40;99.90;;;;;;4895669;29;20419;-72
2023/12/09 06:42:26;;;;;;;5.27;4.00;;;4.30;99.90;;;;;;4894435;29;20183;-73
2023/12/09 06:44:52;;;;;;;6.00;3.93;;;4.30;99.90;;;;;;4898087;29;20619;-73
2023/12/09 06:47:17;;;;;;;7.97;4.60;;;4.30;99.90;;;;;;4894337;29;20235;-72
2023/12/09 06:49:43;;;;;;;6.90;3.97;;;4.40;99.90;;;;;;4869875;29;20263;-73
2023/12/09 06:52:09;;;;;;;6.50;4.07;;;4.30;99.90;;;;;;4894670;29;20179;-73
2023/12/09 06:54:34;;;;;;;5.73;4.23;;;4.40;99.90;;;;;;4895719;29;20627;-72
2023/12/09 06:57:00;;;;;;;8.70;4.63;;;4.40;99.90;;;;;;4877011;29;20470;-72
2023/12/09 06:59:26;;;;;;;8.40;4.60;;;4.40;99.90;;;;;;4891824;29;20194;-72
2023/12/09 07:01:55;;;;;;;7.90;4.37;;;4.50;99.90;;;;;;4896548;29;20596;-73
2023/12/09 07:04:21;;;;;;;9.60;5.20;;;4.50;99.90;;;;;;4888510;29;20195;-72
2023/12/09 07:06:47;;;;;;;12.73;4.63;;;4.50;99.90;;;;;;4894451;29;20427;-73
2023/12/09 07:09:12;;;;;;;15.07;4.70;;;4.60;99.90;;;;;;4892076;29;20251;-72
2023/12/09 07:11:38;;;;;;;8.13;4.40;;;4.60;99.90;;;;;;4880973;29;20218;-72
2023/12/09 07:14:04;;;;;;;10.43;5.50;;;4.60;99.90;;;;;;4904074;29;20218;-70
2023/12/09 07:16:29;;;;;;;11.37;4.57;;;4.60;99.90;;;;;;4895237;29;20555;-73
2023/12/09 07:18:59;;;;;;;7.30;4.30;;;4.60;99.90;;;;;;4893545;29;20209;-74
2023/12/09 07:21:26;;;;;;;8.80;4.20;;;4.60;99.90;;;;;;4896533;29;20875;-74
2023/12/09 07:23:52;;;;;;;8.53;4.60;;;4.60;99.90;;;;;;4892115;29;20427;-72
2023/12/09 07:26:18;;;;;;;8.03;4.47;;;4.60;99.90;;;;;;4899107;29;20443;-74
2023/12/09 07:28:45;;;;;;;13.63;5.03;;;4.60;99.90;;;;;;4874471;29;20218;-75
2023/12/09 07:31:11;;;;;;;15.17;4.70;;;4.60;99.90;;;;;;4891637;29;20437;-73
2023/12/09 07:33:36;;;;;;;7.80;4.17;;;4.60;99.90;;;;;;4896307;29;20740;-72
2023/12/09 07:36:02;;;;;;;17.10;4.90;;;4.60;99.90;;;;;;4888067;29;20480;-71
2023/12/09 07:38:28;;;;;;;8.17;3.80;;;4.60;99.90;;;;;;4893702;29;20218;-72
2023/12/09 07:40:53;;;;;;;9.00;5.23;;;4.60;99.90;;;;;;4893646;29;20202;-73
2023/12/09 07:43:19;;;;;;;8.20;4.80;;;4.60;99.90;;;;;;4897791;29;20193;-73
2023/12/09 07:45:45;;;;;;;7.73;4.27;;;4.70;99.90;;;;;;4886243;29;20218;-75
2023/12/09 07:48:10;;;;;;;10.60;3.97;;;4.70;99.90;;;;;;4877497;29;20211;-72
2023/12/09 07:50:36;;;;;;;8.47;3.67;;;4.80;99.90;;;;;;4899838;29;20482;-72
2023/12/09 07:53:02;;;;;;;9.33;3.40;;;4.70;99.90;;;;;;4853999;29;20193;-74
2023/12/09 07:55:28;;;;;;;6.57;4.60;;;4.70;99.90;;;;;;4858131;29;20558;-73
2023/12/09 07:57:53;;;;;;;6.20;3.60;;;4.70;99.90;;;;;;4852576;29;20430;-74
2023/12/09 08:00:20;;;;;;;6.73;3.40;;;4.80;99.90;;;;;;4858836;29;20641;-75
2023/12/09 08:02:46;;;;;;;10.27;4.57;;;4.80;99.90;;;;;;4858805;29;20228;-73
2023/12/09 08:05:12;;;;;;;13.77;3.83;;;4.90;99.90;;;;;;4841420;29;20457;-74
2023/12/09 08:07:38;;;;;;;10.80;5.40;;;4.90;99.90;;;;;;4860942;29;20192;-72
2023/12/09 08:10:04;;;;;;;7.93;4.50;;;4.90;99.90;;;;;;4838398;29;20201;-73
2023/12/09 08:12:31;;;;;;;8.27;3.80;;;5.10;99.90;;;;;;4856857;29;20445;-74
2023/12/09 08:14:57;;;;;;;10.90;3.97;;;5.20;99.90;;;;;;4845258;29;20491;-72
2023/12/09 08:17:23;;;;;;;8.00;4.17;;;5.30;99.90;;;;;;4858313;29;20825;-76
2023/12/09 08:19:48;;;;;;;7.53;3.70;;;5.30;99.90;;;;;;4826119;29;20230;-74
2023/12/09 08:22:14;;;;;;;8.83;3.40;;;5.40;99.90;;;;;;4855402;29;20253;-74
2023/12/09 08:24:40;;;;;;;6.60;2.83;;;5.50;99.90;;;;;;4883976;29;20671;-74
2023/12/09 08:27:06;;;;;;;10.73;3.30;;;5.50;99.90;;;;;;4883246;29;20192;-75
2023/12/09 08:29:31;;;;;;;7.37;3.57;;;5.60;99.90;;;;;;4893102;29;20480;-73
2023/12/09 08:31:57;;;;;;;9.20;4.20;;;5.70;99.90;;;;;;4875737;29;20280;-73
2023/12/09 08:34:23;;;;;;;13.30;4.13;;;5.80;99.90;;;;;;4879051;29;20214;-74
2023/12/09 08:36:49;;;;;;;8.57;3.40;;;5.80;99.90;;;;;;4879437;29;20259;-73
2023/12/09 08:39:17;;;;;;;8.00;3.60;;;5.90;99.90;;;;;;4910500;29;20449;-73
2023/12/09 08:41:44;;;;;;;13.10;3.37;;;6.00;99.90;;;;;;4897714;29;20192;-73
2023/12/09 08:44:09;;;;;;;8.00;3.13;;;6.00;99.90;;;;;;4883350;29;20480;-74
2023/12/09 08:46:35;;;;;;;10.73;3.97;;;6.10;99.90;;;;;;4898512;29;20455;-74
2023/12/09 08:49:01;;;;;;;8.40;4.20;;;6.10;99.90;;;;;;4901460;29;20342;-77
2023/12/09 08:51:27;;;;;;;13.90;6.30;;;6.10;99.90;;;;;;4903021;29;20187;-73
2023/12/09 08:53:53;;;;;;;7.10;5.30;;;6.20;99.90;;;;;;4900337;29;20417;-74
2023/12/09 08:56:19;;;;;;;9.20;3.90;;;6.20;99.90;;;;;;4888129;29;20222;-73
2023/12/09 08:58:44;;;;;;;10.33;3.47;;;6.30;99.90;;;;;;4889910;29;20269;-74
2023/12/09 09:01:11;;;;;;;5.90;3.20;;;6.40;99.90;;;;;;4885500;29;20690;-75
2023/12/09 09:03:37;;;;;;;8.17;4.30;;;6.40;99.90;;;;;;4877146;29;20263;-74
2023/12/09 09:06:03;;;;;;;7.63;3.77;;;6.50;99.90;;;;;;4884381;29;20768;-73
2023/12/09 09:08:28;;;;;;;8.50;3.00;;;6.60;99.90;;;;;;4903732;29;20242;-74
2023/12/09 09:10:55;;;;;;;8.90;3.30;;;6.70;99.90;;;;;;4889631;29;20446;-74
2023/12/09 09:13:22;;;;;;;8.20;3.47;;;6.70;99.90;;;;;;4897448;29;20274;-73
2023/12/09 09:15:48;;;;;;;7.37;3.30;;;6.70;99.90;;;;;;4883547;29;20492;-74
2023/12/09 09:18:14;;;;;;;15.53;4.00;;;6.80;99.90;;;;;;4883857;29;20432;-78
2023/12/09 09:20:42;;;;;;;7.87;3.23;;;6.90;99.90;;;;;;4906089;29;20495;-75
2023/12/09 09:23:09;;;;;;;5.60;2.60;;;6.90;99.90;;;;;;4872864;29;20199;-75
2023/12/09 09:25:36;;;;;;;10.93;3.13;;;7.00;99.90;;;;;;4896294;29;20758;-74
2023/12/09 09:28:02;;;;;;;5.80;2.83;;;7.00;99.90;;;;;;4898193;29;20470;-73
2023/12/09 09:30:29;;;;;;;11.00;3.50;;;7.00;99.90;;;;;;4876845;29;20199;-73
2023/12/09 09:32:54;;;;;;;4.97;2.50;;;7.00;99.90;;;;;;4881581;29;20518;-76
2023/12/09 09:35:20;;;;;;;6.13;2.80;;;7.10;99.90;;;;;;4887800;29;20549;-74
2023/12/09 09:37:47;;;;;;;7.47;3.80;;;7.10;99.90;;;;;;4881867;29;20527;-75
2023/12/09 09:40:14;;;;;;;9.93;3.80;;;7.10;99.90;;;;;;4905805;29;20199;-75
2023/12/09 09:42:48;;;;;;;4.53;3.10;;;7.20;99.90;;;;;;4880968;29;20735;-75
2023/12/09 09:45:19;;;;;;;8.27;3.10;;;7.30;99.90;;;;;;4899837;29;20468;-75
2023/12/09 09:47:47;;;;;;;7.37;3.13;;;7.40;99.90;;;;;;4894864;29;20436;-75
2023/12/09 09:50:18;;;;;;;6.43;3.00;;;7.50;99.90;;;;;;4899272;29;20536;-74
2023/12/09 09:52:46;;;;;;;10.87;2.90;;;7.60;99.90;;;;;;4896248;29;20428;-75
2023/12/09 09:55:14;;;;;;;9.17;2.90;;;7.70;99.90;;;;;;4871272;29;20490;-76
2023/12/09 09:57:40;;;;;;;13.70;4.00;;;7.70;99.90;;;;;;4883722;29;20451;-74
2023/12/09 10:00:14;;;;;;;7.37;2.97;;;7.90;99.90;;;;;;4886051;29;20408;-74
2023/12/09 10:02:44;;;;;;;8.63;2.83;;;8.00;99.90;;;;;;4896089;29;20440;-74
2023/12/09 10:05:12;;;;;;;14.20;3.20;;;8.10;99.90;;;;;;4882239;29;20451;-75
2023/12/09 10:07:39;;;;;;;7.07;2.70;;;8.20;99.90;;;;;;4909382;29;20478;-74
2023/12/09 10:10:06;;;;;;;7.60;2.80;;;8.20;99.90;;;;;;4902869;29;20428;-75
2023/12/09 10:12:33;;;;;;;5.07;3.13;;;8.20;99.90;;;;;;4892925;29;20470;-75
2023/12/09 10:15:00;;;;;;;8.33;3.50;;;8.20;99.90;;;;;;4885414;29;20497;-74
2023/12/09 10:17:26;;;;;;;10.37;3.20;;;8.20;99.90;;;;;;4893147;29;20452;-75
2023/12/09 10:19:55;;;;;;;8.60;2.80;;;8.20;99.90;;;;;;4881455;29;20511;-75
2023/12/09 10:22:21;;;;;;;7.67;2.20;;;8.30;99.90;;;;;;4903995;29;20416;-74
2023/12/09 10:24:50;;;;;;;4.30;2.77;;;8.30;99.90;;;;;;4903670;29;20463;-74
2023/12/09 10:27:22;;;;;;;7.13;3.33;;;8.40;99.90;;;;;;4905761;29;20423;-76
2023/12/09 10:29:49;;;;;;;8.50;3.50;;;8.50;99.90;;;;;;4898000;29;20823;-73
2023/12/09 10:32:15;;;;;;;8.30;3.20;;;8.60;99.90;;;;;;4896121;29;20468;-74
2023/12/09 10:34:42;;;;;;;10.23;2.60;;;8.70;99.90;;;;;;4900076;29;20427;-75
2023/12/09 10:37:09;;;;;;;8.40;3.17;;;8.90;99.90;;;;;;4885446;29;20451;-76
2023/12/09 10:39:35;;;;;;;6.37;3.43;;;9.00;99.90;;;;;;4899250;29;20455;-79
2023/12/09 10:42:04;;;;;;;10.47;3.30;;;9.20;99.90;;;;;;4894919;29;20484;-78
2023/12/09 10:44:30;;;;;;;9.13;3.00;;;9.30;99.90;;;;;;4891704;29;20428;-73
2023/12/09 10:46:56;;;;;;;10.20;3.03;;;9.30;99.90;;;;;;4903315;29;20435;-76
2023/12/09 10:49:22;;;;;;;7.70;3.23;;;9.50;99.90;;;;;;4891718;29;20463;-75
2023/12/09 10:51:48;;;;;;;7.73;3.37;;;9.60;99.90;;;;;;4874451;29;20191;-78
2023/12/09 10:54:14;;;;;;;11.63;3.60;;;9.60;99.90;;;;;;4904634;29;20474;-77
2023/12/09 10:56:40;;;;;;;8.30;3.30;;;9.70;99.90;;;;;;4890740;29;20219;-75
2023/12/09 10:59:08;;;;;;;10.73;3.30;;;9.70;99.90;;;;;;4905746;29;20451;-75
2023/12/09 11:01:34;;;;;;;8.70;3.57;;;9.80;99.90;;;;;;4889943;29;20718;-78
2023/12/09 11:04:00;;;;;;;9.50;3.70;;;9.70;99.90;;;;;;4904636;29;20450;-77
2023/12/09 11:06:31;;;;;;;8.67;3.17;;;9.70;99.90;;;;;;4885159;29;20452;-76
2023/12/09 11:08:57;;;;;;;6.50;3.10;;;9.70;99.90;;;;;;4892826;29;20461;-75
2023/12/09 11:11:23;;;;;;;5.83;2.70;;;9.60;99.90;;;;;;4894237;29;20451;-76
2023/12/09 11:13:49;;;;;;;7.73;2.10;;;9.50;99.90;;;;;;4869409;29;20187;-76
2023/12/09 11:16:21;;;;;;;8.33;2.30;;;9.50;99.90;;;;;;4878641;29;20472;-76
2023/12/09 11:18:59;;;;;;;14.97;2.87;;;9.40;99.90;;;;;;4900611;29;20444;-75
2023/12/09 11:21:28;;;;;;;8.83;2.60;;;9.30;99.90;;;;;;4882422;29;20439;-76
2023/12/09 11:23:57;;;;;;;7.47;2.63;;;9.30;99.90;;;;;;4894159;29;20419;-76
2023/12/09 11:26:49;;;;;;;6.70;2.50;;;9.30;99.90;;;;;;4889086;29;20991;-77
2023/12/09 11:29:17;;;;;;;5.67;2.93;;;9.30;99.90;;;;;;4875181;29;20523;-75
2023/12/09 11:31:49;;;;;;;8.80;2.60;;;9.30;99.90;;;;;;4907517;29;20491;-78
2023/12/09 11:34:20;;;;;;;12.07;2.60;;;9.30;99.90;;;;;;4901779;29;20443;-76
2023/12/09 11:36:47;;;;;;;6.40;2.47;;;9.30;99.90;;;;;;4880342;29;20860;-77
2023/12/09 11:39:17;;;;;;;9.13;2.97;;;9.30;99.90;;;;;;4884207;29;20438;-77
2023/12/09 11:41:45;;;;;;;7.40;2.57;;;9.30;99.90;;;;;;4859334;29;20764;-75
2023/12/09 11:44:11;;;;;;;6.03;2.47;;;9.40;99.90;;;;;;4883771;29;20436;-75
2023/12/09 11:46:38;;;;;;;12.80;4.03;;;9.40;99.90;;;;;;4871926;29;20913;-78
2023/12/09 11:49:05;;;;;;;5.70;2.60;;;9.40;99.90;;;;;;4878777;29;20486;-76
2023/12/09 11:51:34;;;;;;;5.47;2.40;;;9.40;99.90;;;;;;4870771;29;20437;-78
2023/12/09 11:54:02;;;;;;;9.50;2.37;;;9.50;99.90;;;;;;4885245;29;20422;-77
2023/12/09 11:56:28;;;;;;;6.70;2.00;;;9.50;99.90;;;;;;4866283;29;20449;-77
2023/12/09 11:58:54;;;;;;;4.70;1.63;;;9.50;99.90;;;;;;4870679;29;20440;-76
2023/12/09 12:01:21;;;;;;;4.27;2.00;;;9.50;99.90;;;;;;4855959;29;20436;-78
2023/12/09 12:03:48;;;;;;;14.87;2.90;;;9.60;99.90;;;;;;4849706;29;20438;-79
2023/12/09 12:06:15;;;;;;;6.50;1.73;;;9.60;99.90;;;;;;4861341;29;20453;-77
2023/12/09 12:08:45;;;;;;;9.37;2.63;;;9.70;99.90;;;;;;4889294;29;20931;-76
2023/12/09 12:11:11;;;;;;;9.00;2.03;;;9.80;99.90;;;;;;4896962;29;20412;-78
2023/12/09 12:13:37;;;;;;;5.37;2.00;;;9.80;99.90;;;;;;4914959;29;20400;-78
2023/12/09 12:16:04;;;;;;;11.40;3.10;;;9.80;99.90;;;;;;4875809;29;20244;-78
2023/12/09 12:18:30;;;;;;;5.13;2.10;;;9.80;99.90;;;;;;4875930;29;20617;-78
2023/12/09 12:20:56;;;;;;;6.23;1.73;;;9.80;99.90;;;;;;4849300;29;20409;-78
2023/12/09 12:23:22;;;;;;;4.97;2.00;;;9.90;99.90;;;;;;4837343;29;20435;-78
2023/12/09 12:25:55;;;;;;;6.23;2.13;;;9.70;99.90;;;;;;4853802;29;20460;-77
2023/12/09 12:28:22;;;;;;;5.90;1.80;;;9.60;99.90;;;;;;4854767;29;20307;-78
2023/12/09 12:30:55;;;;;;;3.97;1.40;;;9.50;99.90;;;;;;4839331;29;20442;-77
2023/12/09 12:33:25;;;;;;;5.20;1.40;;;9.40;99.90;;;;;;4868509;29;20473;-77
2023/12/09 12:35:54;;;;;;;4.77;1.90;;;9.20;99.90;;;;;;4846625;29;20483;-78
2023/12/09 12:38:24;;;;;;;4.43;1.70;;;9.20;99.90;;;;;;4859387;29;20523;-76
2023/12/09 12:40:51;;;;;;;3.37;2.13;;;9.10;99.90;;;;;;4834717;29;20538;-77
2023/12/09 12:43:17;;;;;;;6.27;1.80;;;9.10;99.90;;;;;;4849854;29;20459;-78
2023/12/09 12:45:51;;;;;;;5.10;2.47;;;9.10;99.90;;;;;;4824315;29;20453;-76
2023/12/09 12:48:17;;;;;;;5.63;2.33;;;9.10;99.90;;;;;;4850506;29;20484;-76
2023/12/09 12:50:43;;;;;;;7.70;2.10;;;9.10;99.90;;;;;;4858861;29;20833;-79
2023/12/09 12:53:09;;;;;;;4.03;2.30;;;9.10;99.90;;;;;;4870934;29;20448;-77